sensor_id;sensor_type;location;lat;lon;timestamp;pressure;altitude;pressure_sealevel;temperature;humidity
43621;BME280;29213;50.770;7.298;2023-09-08T00:00:40;101055.34;;;15.49;61.33
43621;BME280;29213;50.770;7.298;2023-09-08T00:03:05;101091.63;;;15.75;61.25
43621;BME280;29213;50.770;7.298;2023-09-08T00:05:31;101051.34;;;15.45;61.22
43621;BME280;29213;50.770;7.298;2023-09-08T00:07:57;101046.38;;;15.42;61.04
43621;BME280;29213;50.770;7.298;2023-09-08T00:10:22;101061.91;;;15.47;61.30
43621;BME280;29213;50.770;7.298;2023-09-08T00:12:47;101080.22;;;15.58;61.45
43621;BME280;29213;50.770;7.298;2023-09-08T00:15:13;101091.06;;;15.65;61.22
43621;BME280;29213;50.770;7.298;2023-09-08T00:17:38;101095.81;;;15.63;61.51
43621;BME280;29213;50.770;7.298;2023-09-08T00:20:06;101100.16;;;15.64;61.44
43621;BME280;29213;50.770;7.298;2023-09-08T00:22:35;101079.50;;;15.49;61.19
43621;BME280;29213;50.770;7.298;2023-09-08T00:25:01;101057.38;;;15.32;61.42
43621;BME280;29213;50.770;7.298;2023-09-08T00:27:26;101110.31;;;15.54;61.64
43621;BME280;29213;50.770;7.298;2023-09-08T00:29:51;101074.31;;;15.33;61.59
43621;BME280;29213;50.770;7.298;2023-09-08T00:32:17;101080.41;;;15.42;61.75
43621;BME280;29213;50.770;7.298;2023-09-08T00:34:42;101067.09;;;15.33;61.62
43621;BME280;29213;50.770;7.298;2023-09-08T00:37:08;101010.13;;;14.93;61.59
43621;BME280;29213;50.770;7.298;2023-09-08T00:39:38;101088.47;;;15.42;61.95
43621;BME280;29213;50.770;7.298;2023-09-08T00:42:03;101084.97;;;15.41;61.69
43621;BME280;29213;50.770;7.298;2023-09-08T00:44:29;101061.81;;;15.25;61.61
43621;BME280;29213;50.770;7.298;2023-09-08T00:46:55;101059.03;;;15.18;61.75
43621;BME280;29213;50.770;7.298;2023-09-08T00:49:21;101072.81;;;15.30;61.65
43621;BME280;29213;50.770;7.298;2023-09-08T00:51:47;101088.91;;;15.30;61.90
43621;BME280;29213;50.770;7.298;2023-09-08T00:54:12;101056.25;;;15.12;61.74
43621;BME280;29213;50.770;7.298;2023-09-08T00:56:38;101071.59;;;15.18;61.71
43621;BME280;29213;50.770;7.298;2023-09-08T00:59:04;101085.50;;;15.21;61.68
43621;BME280;29213;50.770;7.298;2023-09-08T01:01:31;101034.81;;;14.88;61.42
43621;BME280;29213;50.770;7.298;2023-09-08T01:03:56;101091.03;;;15.20;61.50
43621;BME280;29213;50.770;7.298;2023-09-08T01:06:22;101055.16;;;14.98;61.88
43621;BME280;29213;50.770;7.298;2023-09-08T01:08:48;101043.03;;;14.87;61.84
43621;BME280;29213;50.770;7.298;2023-09-08T01:11:15;101049.06;;;14.89;61.86
43621;BME280;29213;50.770;7.298;2023-09-08T01:13:43;101092.78;;;15.13;61.86
43621;BME280;29213;50.770;7.298;2023-09-08T01:16:08;101046.97;;;14.76;61.85
43621;BME280;29213;50.770;7.298;2023-09-08T01:18:34;101075.50;;;14.92;61.72
43621;BME280;29213;50.770;7.298;2023-09-08T01:26:46;101087.41;;;14.89;61.78
43621;BME280;29213;50.770;7.298;2023-09-08T01:29:13;101034.78;;;14.50;61.50
43621;BME280;29213;50.770;7.298;2023-09-08T01:31:38;101065.28;;;14.72;61.75
43621;BME280;29213;50.770;7.298;2023-09-08T01:34:04;101105.72;;;14.86;61.87
43621;BME280;29213;50.770;7.298;2023-09-08T01:36:33;101081.00;;;14.75;62.01
43621;BME280;29213;50.770;7.298;2023-09-08T01:38:59;101044.38;;;14.44;62.06
43621;BME280;29213;50.770;7.298;2023-09-08T01:41:25;101094.22;;;14.77;62.10
43621;BME280;29213;50.770;7.298;2023-09-08T01:43:50;101079.09;;;14.61;62.12
43621;BME280;29213;50.770;7.298;2023-09-08T01:46:16;101082.19;;;14.73;62.21
43621;BME280;29213;50.770;7.298;2023-09-08T01:48:41;101087.53;;;14.73;62.31
43621;BME280;29213;50.770;7.298;2023-09-08T01:51:06;101057.06;;;14.50;62.44
43621;BME280;29213;50.770;7.298;2023-09-08T01:53:32;101050.22;;;14.48;62.24
43621;BME280;29213;50.770;7.298;2023-09-08T01:55:57;101083.75;;;14.67;62.46
43621;BME280;29213;50.770;7.298;2023-09-08T01:58:23;101089.28;;;14.65;62.47
43621;BME280;29213;50.770;7.298;2023-09-08T02:00:51;101059.09;;;14.48;62.27
43621;BME280;29213;50.770;7.298;2023-09-08T02:03:17;101071.78;;;14.54;62.35
43621;BME280;29213;50.770;7.298;2023-09-08T02:05:42;101013.53;;;14.25;62.40
43621;BME280;29213;50.770;7.298;2023-09-08T02:08:08;101052.56;;;14.51;62.61
43621;BME280;29213;50.770;7.298;2023-09-08T02:10:33;101011.88;;;14.24;62.87
43621;BME280;29213;50.770;7.298;2023-09-08T02:12:58;101025.75;;;14.27;62.70
43621;BME280;29213;50.770;7.298;2023-09-08T02:15:24;101074.00;;;14.51;62.87
43621;BME280;29213;50.770;7.298;2023-09-08T02:17:53;101035.97;;;14.24;62.45
43621;BME280;29213;50.770;7.298;2023-09-08T02:20:19;101042.16;;;14.24;62.73
43621;BME280;29213;50.770;7.298;2023-09-08T02:22:45;101055.13;;;14.36;62.63
43621;BME280;29213;50.770;7.298;2023-09-08T02:25:13;101041.16;;;14.25;62.62
43621;BME280;29213;50.770;7.298;2023-09-08T02:27:39;101030.63;;;14.24;62.71
43621;BME280;29213;50.770;7.298;2023-09-08T02:30:04;101038.28;;;14.27;62.78
43621;BME280;29213;50.770;7.298;2023-09-08T02:32:30;101024.50;;;14.15;62.83
43621;BME280;29213;50.770;7.298;2023-09-08T02:34:55;101014.13;;;14.12;62.79
43621;BME280;29213;50.770;7.298;2023-09-08T02:37:21;101008.13;;;14.01;62.87
43621;BME280;29213;50.770;7.298;2023-09-08T02:39:46;101016.81;;;14.03;62.96
43621;BME280;29213;50.770;7.298;2023-09-08T02:42:11;101006.44;;;14.00;62.86
43621;BME280;29213;50.770;7.298;2023-09-08T02:44:37;101074.09;;;14.34;62.85
43621;BME280;29213;50.770;7.298;2023-09-08T02:47:02;101023.50;;;14.08;62.70
43621;BME280;29213;50.770;7.298;2023-09-08T02:49:28;101022.53;;;14.09;62.75
43621;BME280;29213;50.770;7.298;2023-09-08T02:51:53;101057.41;;;14.24;62.75
43621;BME280;29213;50.770;7.298;2023-09-08T02:54:19;101053.41;;;14.20;62.67
43621;BME280;29213;50.770;7.298;2023-09-08T02:56:44;101070.63;;;14.25;62.87
43621;BME280;29213;50.770;7.298;2023-09-08T02:59:09;101044.59;;;14.11;62.98
43621;BME280;29213;50.770;7.298;2023-09-08T03:01:35;101029.38;;;14.03;63.41
43621;BME280;29213;50.770;7.298;2023-09-08T03:04:00;101024.72;;;13.97;63.39
43621;BME280;29213;50.770;7.298;2023-09-08T03:06:26;101057.28;;;14.17;63.39
43621;BME280;29213;50.770;7.298;2023-09-08T03:08:51;101061.31;;;14.13;63.47
43621;BME280;29213;50.770;7.298;2023-09-08T03:11:17;101063.16;;;14.04;63.52
43621;BME280;29213;50.770;7.298;2023-09-08T03:13:42;101021.66;;;13.76;63.58
43621;BME280;29213;50.770;7.298;2023-09-08T03:16:08;101016.78;;;13.72;63.89
43621;BME280;29213;50.770;7.298;2023-09-08T03:18:35;101034.66;;;13.80;63.44
43621;BME280;29213;50.770;7.298;2023-09-08T03:21:05;101062.13;;;13.82;63.48
43621;BME280;29213;50.770;7.298;2023-09-08T03:23:41;101053.28;;;13.73;63.80
43621;BME280;29213;50.770;7.298;2023-09-08T03:26:08;101009.09;;;13.37;63.98
43621;BME280;29213;50.770;7.298;2023-09-08T03:28:34;101035.63;;;13.47;64.13
43621;BME280;29213;50.770;7.298;2023-09-08T03:31:01;101056.50;;;13.60;64.18
43621;BME280;29213;50.770;7.298;2023-09-08T03:33:27;101016.28;;;13.36;64.28
43621;BME280;29213;50.770;7.298;2023-09-08T03:35:52;101043.47;;;13.57;64.21
43621;BME280;29213;50.770;7.298;2023-09-08T03:38:18;101055.16;;;13.64;64.16
43621;BME280;29213;50.770;7.298;2023-09-08T03:40:43;101039.75;;;13.58;64.12
43621;BME280;29213;50.770;7.298;2023-09-08T03:43:09;101026.59;;;13.48;64.09
43621;BME280;29213;50.770;7.298;2023-09-08T03:45:35;101013.25;;;13.40;64.00
43621;BME280;29213;50.770;7.298;2023-09-08T03:48:00;100979.56;;;13.14;64.14
43621;BME280;29213;50.770;7.298;2023-09-08T03:50:26;101008.97;;;13.22;64.33
43621;BME280;29213;50.770;7.298;2023-09-08T03:52:51;101004.63;;;13.13;64.47
43621;BME280;29213;50.770;7.298;2023-09-08T03:55:18;101012.13;;;13.17;64.48
43621;BME280;29213;50.770;7.298;2023-09-08T03:57:44;100992.28;;;13.03;64.65
43621;BME280;29213;50.770;7.298;2023-09-08T04:00:10;101001.81;;;13.14;64.54
43621;BME280;29213;50.770;7.298;2023-09-08T04:02:36;101031.19;;;13.31;64.32
43621;BME280;29213;50.770;7.298;2023-09-08T04:05:02;101005.44;;;13.21;64.04
43621;BME280;29213;50.770;7.298;2023-09-08T04:07:27;100972.03;;;13.01;63.94
43621;BME280;29213;50.770;7.298;2023-09-08T04:09:53;101023.13;;;13.39;63.85
43621;BME280;29213;50.770;7.298;2023-09-08T04:12:18;101058.88;;;13.55;63.56
43621;BME280;29213;50.770;7.298;2023-09-08T04:14:44;101052.22;;;13.42;63.76
43621;BME280;29213;50.770;7.298;2023-09-08T04:17:09;101006.94;;;13.16;63.62
43621;BME280;29213;50.770;7.298;2023-09-08T04:19:34;101059.19;;;13.52;63.82
43621;BME280;29213;50.770;7.298;2023-09-08T04:22:00;101007.59;;;13.26;64.03
43621;BME280;29213;50.770;7.298;2023-09-08T04:24:25;101047.84;;;13.49;63.74
43621;BME280;29213;50.770;7.298;2023-09-08T04:26:51;101046.50;;;13.54;63.82
43621;BME280;29213;50.770;7.298;2023-09-08T04:29:16;101037.31;;;13.48;63.95
43621;BME280;29213;50.770;7.298;2023-09-08T04:31:41;101031.94;;;13.48;63.49
43621;BME280;29213;50.770;7.298;2023-09-08T04:34:07;101062.66;;;13.60;63.21
43621;BME280;29213;50.770;7.298;2023-09-08T04:36:32;101061.19;;;13.58;63.31
43621;BME280;29213;50.770;7.298;2023-09-08T04:38:57;101014.28;;;13.30;63.10
43621;BME280;29213;50.770;7.298;2023-09-08T04:41:23;101047.00;;;13.49;63.20
43621;BME280;29213;50.770;7.298;2023-09-08T04:43:48;101038.84;;;13.42;63.59
43621;BME280;29213;50.770;7.298;2023-09-08T04:46:14;101034.47;;;13.41;63.63
43621;BME280;29213;50.770;7.298;2023-09-08T04:48:39;101013.63;;;13.28;63.50
43621;BME280;29213;50.770;7.298;2023-09-08T04:51:04;100990.41;;;13.12;63.46
43621;BME280;29213;50.770;7.298;2023-09-08T04:53:30;101053.34;;;13.48;63.51
43621;BME280;29213;50.770;7.298;2023-09-08T04:55:55;101006.13;;;13.15;63.43
43621;BME280;29213;50.770;7.298;2023-09-08T04:58:21;101057.38;;;13.44;63.59
43621;BME280;29213;50.770;7.298;2023-09-08T05:00:46;101059.22;;;13.43;63.51
43621;BME280;29213;50.770;7.298;2023-09-08T05:03:12;101058.91;;;13.38;63.71
43621;BME280;29213;50.770;7.298;2023-09-08T05:05:37;101039.00;;;13.32;63.85
43621;BME280;29213;50.770;7.298;2023-09-08T05:08:04;101027.19;;;13.18;63.92
43621;BME280;29213;50.770;7.298;2023-09-08T05:10:30;101039.53;;;13.28;63.83
43621;BME280;29213;50.770;7.298;2023-09-08T05:12:55;101031.53;;;13.19;63.82
43621;BME280;29213;50.770;7.298;2023-09-08T05:15:20;101004.63;;;13.04;63.90
43621;BME280;29213;50.770;7.298;2023-09-08T05:17:47;101016.16;;;13.13;64.12
43621;BME280;29213;50.770;7.298;2023-09-08T05:20:12;101015.16;;;13.06;64.22
43621;BME280;29213;50.770;7.298;2023-09-08T05:22:38;101030.38;;;13.14;64.31
43621;BME280;29213;50.770;7.298;2023-09-08T05:25:04;100951.53;;;12.60;64.31
43621;BME280;29213;50.770;7.298;2023-09-08T05:27:29;101012.13;;;13.01;64.35
43621;BME280;29213;50.770;7.298;2023-09-08T05:29:55;101053.06;;;13.26;64.04
43621;BME280;29213;50.770;7.298;2023-09-08T05:32:20;101016.19;;;13.05;64.42
43621;BME280;29213;50.770;7.298;2023-09-08T05:34:45;101023.03;;;13.07;64.60
43621;BME280;29213;50.770;7.298;2023-09-08T05:37:11;101059.44;;;13.25;64.68
43621;BME280;29213;50.770;7.298;2023-09-08T05:39:36;100978.44;;;12.75;65.04
43621;BME280;29213;50.770;7.298;2023-09-08T05:42:02;101042.41;;;13.18;65.18
43621;BME280;29213;50.770;7.298;2023-09-08T05:44:27;101069.78;;;13.36;65.24
43621;BME280;29213;50.770;7.298;2023-09-08T05:46:52;101015.00;;;13.07;65.30
43621;BME280;29213;50.770;7.298;2023-09-08T05:49:18;101060.56;;;13.39;65.39
43621;BME280;29213;50.770;7.298;2023-09-08T05:51:44;101042.22;;;13.28;65.52
43621;BME280;29213;50.770;7.298;2023-09-08T05:54:10;101011.97;;;13.19;65.40
43621;BME280;29213;50.770;7.298;2023-09-08T05:56:36;101067.53;;;13.57;65.63
43621;BME280;29213;50.770;7.298;2023-09-08T05:59:02;101052.53;;;13.47;65.69
43621;BME280;29213;50.770;7.298;2023-09-08T06:01:28;101075.38;;;13.67;65.72
43621;BME280;29213;50.770;7.298;2023-09-08T06:03:54;101029.44;;;13.46;65.85
43621;BME280;29213;50.770;7.298;2023-09-08T06:06:22;101030.13;;;13.48;65.91
43621;BME280;29213;50.770;7.298;2023-09-08T06:08:47;101053.78;;;13.68;66.17
43621;BME280;29213;50.770;7.298;2023-09-08T06:11:13;101082.66;;;13.89;66.21
43621;BME280;29213;50.770;7.298;2023-09-08T06:13:39;101036.91;;;13.68;66.14
43621;BME280;29213;50.770;7.298;2023-09-08T06:16:04;101047.34;;;13.86;66.02
43621;BME280;29213;50.770;7.298;2023-09-08T06:18:30;101044.00;;;13.92;65.94
43621;BME280;29213;50.770;7.298;2023-09-08T06:20:56;101058.66;;;14.05;66.09
43621;BME280;29213;50.770;7.298;2023-09-08T06:23:22;101038.59;;;14.00;66.15
43621;BME280;29213;50.770;7.298;2023-09-08T06:25:48;101002.81;;;13.93;65.71
43621;BME280;29213;50.770;7.298;2023-09-08T06:28:14;101047.31;;;14.34;65.74
43621;BME280;29213;50.770;7.298;2023-09-08T06:30:39;101055.88;;;14.53;65.73
43621;BME280;29213;50.770;7.298;2023-09-08T06:33:10;101044.50;;;14.51;65.26
43621;BME280;29213;50.770;7.298;2023-09-08T06:35:35;101058.59;;;14.68;65.30
43621;BME280;29213;50.770;7.298;2023-09-08T06:38:00;101052.91;;;14.71;65.12
43621;BME280;29213;50.770;7.298;2023-09-08T06:40:26;101027.16;;;14.62;64.97
43621;BME280;29213;50.770;7.298;2023-09-08T06:42:54;101043.41;;;14.83;64.68
43621;BME280;29213;50.770;7.298;2023-09-08T06:45:19;101020.00;;;14.77;64.43
43621;BME280;29213;50.770;7.298;2023-09-08T06:47:45;101049.97;;;15.04;64.16
43621;BME280;29213;50.770;7.298;2023-09-08T06:50:10;101050.25;;;15.25;64.29
43621;BME280;29213;50.770;7.298;2023-09-08T06:52:36;101028.22;;;15.14;63.51
43621;BME280;29213;50.770;7.298;2023-09-08T06:55:01;101064.59;;;15.47;63.68
43621;BME280;29213;50.770;7.298;2023-09-08T06:57:27;101020.81;;;15.31;62.95
43621;BME280;29213;50.770;7.298;2023-09-08T06:59:53;101075.50;;;15.75;63.22
43621;BME280;29213;50.770;7.298;2023-09-08T07:02:18;101074.66;;;15.90;62.82
43621;BME280;29213;50.770;7.298;2023-09-08T07:04:44;101055.66;;;15.92;62.47
43621;BME280;29213;50.770;7.298;2023-09-08T07:07:09;101056.88;;;16.04;62.04
43621;BME280;29213;50.770;7.298;2023-09-08T07:09:36;101034.56;;;16.03;61.88
43621;BME280;29213;50.770;7.298;2023-09-08T07:12:05;101025.94;;;16.08;61.46
43621;BME280;29213;50.770;7.298;2023-09-08T07:14:34;101045.28;;;16.40;61.34
43621;BME280;29213;50.770;7.298;2023-09-08T07:16:59;101073.19;;;16.61;61.19
43621;BME280;29213;50.770;7.298;2023-09-08T07:19:26;101047.72;;;16.57;60.38
43621;BME280;29213;50.770;7.298;2023-09-08T07:21:52;101038.94;;;16.70;59.79
43621;BME280;29213;50.770;7.298;2023-09-08T07:24:17;101034.19;;;16.72;60.18
43621;BME280;29213;50.770;7.298;2023-09-08T07:26:42;101057.78;;;16.99;60.03
43621;BME280;29213;50.770;7.298;2023-09-08T07:29:08;101055.00;;;17.14;59.72
43621;BME280;29213;50.770;7.298;2023-09-08T07:31:33;101037.25;;;17.19;59.40
43621;BME280;29213;50.770;7.298;2023-09-08T07:33:59;101056.69;;;17.50;58.70
43621;BME280;29213;50.770;7.298;2023-09-08T07:36:24;101021.16;;;17.33;57.80
43621;BME280;29213;50.770;7.298;2023-09-08T07:38:49;101059.72;;;17.75;57.61
43621;BME280;29213;50.770;7.298;2023-09-08T07:41:15;101049.81;;;17.83;57.68
43621;BME280;29213;50.770;7.298;2023-09-08T07:43:40;101014.09;;;17.67;57.16
43621;BME280;29213;50.770;7.298;2023-09-08T07:46:06;101014.78;;;17.83;57.10
43621;BME280;29213;50.770;7.298;2023-09-08T07:48:32;101035.59;;;18.02;56.62
43621;BME280;29213;50.770;7.298;2023-09-08T07:50:58;100987.03;;;17.82;56.01
43621;BME280;29213;50.770;7.298;2023-09-08T07:53:26;101038.13;;;18.24;55.91
43621;BME280;29213;50.770;7.298;2023-09-08T07:55:51;101041.25;;;18.41;55.86
43621;BME280;29213;50.770;7.298;2023-09-08T07:58:16;101048.34;;;18.56;55.76
43621;BME280;29213;50.770;7.298;2023-09-08T08:00:42;101026.34;;;18.59;55.69
43621;BME280;29213;50.770;7.298;2023-09-08T08:03:07;101050.44;;;18.88;54.98
43621;BME280;29213;50.770;7.298;2023-09-08T08:05:33;101011.19;;;18.78;55.09
43621;BME280;29213;50.770;7.298;2023-09-08T08:07:59;101055.59;;;19.16;54.65
43621;BME280;29213;50.770;7.298;2023-09-08T08:10:24;101046.47;;;19.24;54.53
43621;BME280;29213;50.770;7.298;2023-09-08T08:12:50;101006.78;;;19.18;53.82
43621;BME280;29213;50.770;7.298;2023-09-08T08:15:15;101028.56;;;19.43;53.98
43621;BME280;29213;50.770;7.298;2023-09-08T08:17:41;101036.16;;;19.60;54.23
43621;BME280;29213;50.770;7.298;2023-09-08T08:20:08;101059.50;;;20.00;53.93
43621;BME280;29213;50.770;7.298;2023-09-08T08:22:35;101017.31;;;19.99;53.29
43621;BME280;29213;50.770;7.298;2023-09-08T08:25:01;101011.63;;;20.07;52.63
43621;BME280;29213;50.770;7.298;2023-09-08T08:27:26;101033.13;;;20.34;53.02
43621;BME280;29213;50.770;7.298;2023-09-08T08:29:51;101054.78;;;20.60;53.05
43621;BME280;29213;50.770;7.298;2023-09-08T08:32:17;100961.09;;;20.14;52.43
43621;BME280;29213;50.770;7.298;2023-09-08T08:34:43;101017.44;;;20.68;51.99
43621;BME280;29213;50.770;7.298;2023-09-08T08:37:10;101038.44;;;20.99;52.69
43621;BME280;29213;50.770;7.298;2023-09-08T08:39:36;101010.91;;;21.02;52.31
43621;BME280;29213;50.770;7.298;2023-09-08T08:42:08;101035.53;;;21.38;51.45
43621;BME280;29213;50.770;7.298;2023-09-08T08:44:34;101009.50;;;21.37;51.88
43621;BME280;29213;50.770;7.298;2023-09-08T08:47:01;101023.56;;;21.64;50.97
43621;BME280;29213;50.770;7.298;2023-09-08T08:49:27;101038.44;;;21.92;50.67
43621;BME280;29213;50.770;7.298;2023-09-08T08:51:54;100993.53;;;21.84;51.11
43621;BME280;29213;50.770;7.298;2023-09-08T08:54:20;101044.84;;;22.28;50.35
43621;BME280;29213;50.770;7.298;2023-09-08T08:56:46;101038.63;;;22.40;50.35
43621;BME280;29213;50.770;7.298;2023-09-08T08:59:12;100993.88;;;22.31;50.22
43621;BME280;29213;50.770;7.298;2023-09-08T09:01:39;101035.59;;;22.72;50.09
43621;BME280;29213;50.770;7.298;2023-09-08T09:04:06;101005.38;;;22.68;49.70
43621;BME280;29213;50.770;7.298;2023-09-08T09:06:32;100968.66;;;22.54;48.95
43621;BME280;29213;50.770;7.298;2023-09-08T09:08:59;101032.78;;;23.03;48.45
43621;BME280;29213;50.770;7.298;2023-09-08T09:11:25;101024.16;;;23.06;49.39
43621;BME280;29213;50.770;7.298;2023-09-08T09:13:50;101002.66;;;23.04;47.34
43621;BME280;29213;50.770;7.298;2023-09-08T09:16:16;101030.50;;;23.35;47.97
43621;BME280;29213;50.770;7.298;2023-09-08T09:18:58;101020.81;;;23.40;46.83
43621;BME280;29213;50.770;7.298;2023-09-08T09:21:25;101018.75;;;23.47;47.00
43621;BME280;29213;50.770;7.298;2023-09-08T09:24:05;101001.53;;;23.41;46.03
43621;BME280;29213;50.770;7.298;2023-09-08T09:26:31;100988.97;;;23.52;47.02
43621;BME280;29213;50.770;7.298;2023-09-08T09:28:56;101034.84;;;23.90;47.06
43621;BME280;29213;50.770;7.298;2023-09-08T09:31:25;101022.56;;;24.04;46.07
43621;BME280;29213;50.770;7.298;2023-09-08T09:34:04;101024.25;;;24.22;46.07
43621;BME280;29213;50.770;7.298;2023-09-08T09:36:30;101017.13;;;24.33;46.18
43621;BME280;29213;50.770;7.298;2023-09-08T09:39:00;101012.66;;;24.27;43.13
43621;BME280;29213;50.770;7.298;2023-09-08T09:41:28;101021.53;;;24.22;44.24
43621;BME280;29213;50.770;7.298;2023-09-08T09:43:54;101024.38;;;24.27;43.48
43621;BME280;29213;50.770;7.298;2023-09-08T09:46:20;101004.00;;;24.30;45.19
43621;BME280;29213;50.770;7.298;2023-09-08T09:48:50;101004.28;;;24.46;44.79
43621;BME280;29213;50.770;7.298;2023-09-08T09:51:19;101011.69;;;24.50;43.19
43621;BME280;29213;50.770;7.298;2023-09-08T09:53:44;100960.16;;;24.26;42.54
43621;BME280;29213;50.770;7.298;2023-09-08T09:56:11;100991.66;;;24.39;42.54
43621;BME280;29213;50.770;7.298;2023-09-08T09:58:37;100999.47;;;24.53;43.90
43621;BME280;29213;50.770;7.298;2023-09-08T10:01:04;101004.31;;;24.68;44.45
43621;BME280;29213;50.770;7.298;2023-09-08T10:03:31;101026.00;;;24.80;42.37
43621;BME280;29213;50.770;7.298;2023-09-08T10:05:59;100969.97;;;24.45;42.38
43621;BME280;29213;50.770;7.298;2023-09-08T10:08:24;100981.66;;;24.45;43.34
43621;BME280;29213;50.770;7.298;2023-09-08T10:10:50;101013.16;;;24.58;43.12
43621;BME280;29213;50.770;7.298;2023-09-08T10:13:24;100956.91;;;24.12;42.72
43621;BME280;29213;50.770;7.298;2023-09-08T10:15:56;100971.06;;;24.14;43.66
43621;BME280;29213;50.770;7.298;2023-09-08T10:18:22;100986.53;;;24.26;43.81
43621;BME280;29213;50.770;7.298;2023-09-08T10:20:51;100987.13;;;24.28;44.28
43621;BME280;29213;50.770;7.298;2023-09-08T10:23:34;101007.47;;;24.43;43.49
43621;BME280;29213;50.770;7.298;2023-09-08T10:26:03;101013.84;;;24.48;44.12
43621;BME280;29213;50.770;7.298;2023-09-08T10:28:33;101012.91;;;24.43;42.37
43621;BME280;29213;50.770;7.298;2023-09-08T10:30:59;101003.44;;;24.45;43.55
43621;BME280;29213;50.770;7.298;2023-09-08T10:33:25;100972.81;;;24.21;43.90
43621;BME280;29213;50.770;7.298;2023-09-08T10:35:51;101005.06;;;24.46;43.97
43621;BME280;29213;50.770;7.298;2023-09-08T10:38:33;101001.03;;;24.49;44.32
43621;BME280;29213;50.770;7.298;2023-09-08T10:44:02;101002.78;;;24.38;43.22
43621;BME280;29213;50.770;7.298;2023-09-08T10:46:28;101005.25;;;24.39;43.73
43621;BME280;29213;50.770;7.298;2023-09-08T10:49:01;100983.31;;;24.29;41.91
43621;BME280;29213;50.770;7.298;2023-09-08T10:51:28;100964.41;;;24.22;41.80
43621;BME280;29213;50.770;7.298;2023-09-08T10:53:54;101004.00;;;24.47;42.37
43621;BME280;29213;50.770;7.298;2023-09-08T10:56:19;100987.69;;;24.30;41.03
43621;BME280;29213;50.770;7.298;2023-09-08T10:58:49;100997.66;;;24.41;41.92
43621;BME280;29213;50.770;7.298;2023-09-08T11:01:17;100951.78;;;24.16;42.79
43621;BME280;29213;50.770;7.298;2023-09-08T11:03:46;100960.03;;;24.21;42.10
43621;BME280;29213;50.770;7.298;2023-09-08T11:06:17;100989.00;;;24.27;40.52
43621;BME280;29213;50.770;7.298;2023-09-08T11:08:45;100976.59;;;24.20;41.77
43621;BME280;29213;50.770;7.298;2023-09-08T11:11:11;100971.03;;;24.26;41.77
43621;BME280;29213;50.770;7.298;2023-09-08T11:13:38;100961.66;;;24.05;40.14
43621;BME280;29213;50.770;7.298;2023-09-08T11:16:05;100980.28;;;24.25;40.71
43621;BME280;29213;50.770;7.298;2023-09-08T11:18:32;100976.56;;;24.32;41.44
43621;BME280;29213;50.770;7.298;2023-09-08T11:21:00;100980.00;;;24.44;42.33
43621;BME280;29213;50.770;7.298;2023-09-08T11:23:27;100973.16;;;24.41;41.77
43621;BME280;29213;50.770;7.298;2023-09-08T11:25:53;100947.03;;;24.23;41.88
43621;BME280;29213;50.770;7.298;2023-09-08T11:28:21;100976.72;;;24.42;41.46
43621;BME280;29213;50.770;7.298;2023-09-08T11:30:47;100941.81;;;24.22;40.73
43621;BME280;29213;50.770;7.298;2023-09-08T11:33:17;100975.47;;;24.50;41.36
43621;BME280;29213;50.770;7.298;2023-09-08T11:35:45;100968.88;;;24.46;40.11
43621;BME280;29213;50.770;7.298;2023-09-08T11:38:11;100969.53;;;24.53;40.28
43621;BME280;29213;50.770;7.298;2023-09-08T11:40:36;100970.94;;;24.38;39.28
43621;BME280;29213;50.770;7.298;2023-09-08T11:43:03;100952.97;;;24.37;41.05
43621;BME280;29213;50.770;7.298;2023-09-08T11:45:30;100976.94;;;24.58;40.71
43621;BME280;29213;50.770;7.298;2023-09-08T11:47:56;100975.28;;;24.57;39.64
43621;BME280;29213;50.770;7.298;2023-09-08T11:50:21;100963.53;;;24.51;39.51
43621;BME280;29213;50.770;7.298;2023-09-08T11:52:50;100975.63;;;24.60;40.37
43621;BME280;29213;50.770;7.298;2023-09-08T11:55:16;100948.00;;;24.51;40.39
43621;BME280;29213;50.770;7.298;2023-09-08T11:57:43;100976.59;;;24.71;39.58
43621;BME280;29213;50.770;7.298;2023-09-08T12:00:10;100971.22;;;24.76;39.87
43621;BME280;29213;50.770;7.298;2023-09-08T12:02:41;100941.13;;;24.66;40.79
43621;BME280;29213;50.770;7.298;2023-09-08T12:05:19;100967.59;;;24.88;39.57
43621;BME280;29213;50.770;7.298;2023-09-08T12:07:45;100955.28;;;24.85;39.51
43621;BME280;29213;50.770;7.298;2023-09-08T12:10:11;100939.69;;;24.80;39.70
43621;BME280;29213;50.770;7.298;2023-09-08T12:12:44;100926.34;;;24.79;39.91
43621;BME280;29213;50.770;7.298;2023-09-08T12:15:10;100952.28;;;25.04;40.18
43621;BME280;29213;50.770;7.298;2023-09-08T12:17:47;100915.22;;;24.86;40.53
43621;BME280;29213;50.770;7.298;2023-09-08T12:20:14;100935.38;;;25.02;40.34
43621;BME280;29213;50.770;7.298;2023-09-08T12:22:47;100939.28;;;25.11;39.88
43621;BME280;29213;50.770;7.298;2023-09-08T12:25:13;100921.75;;;25.02;39.42
43621;BME280;29213;50.770;7.298;2023-09-08T12:27:38;100956.06;;;25.25;38.93
43621;BME280;29213;50.770;7.298;2023-09-08T12:30:04;100942.97;;;25.22;39.37
43621;BME280;29213;50.770;7.298;2023-09-08T12:32:31;100952.28;;;25.26;39.22
43621;BME280;29213;50.770;7.298;2023-09-08T12:34:58;100934.47;;;25.18;39.45
43621;BME280;29213;50.770;7.298;2023-09-08T12:37:25;100909.53;;;25.04;38.61
43621;BME280;29213;50.770;7.298;2023-09-08T12:39:53;100949.09;;;25.34;39.17
43621;BME280;29213;50.770;7.298;2023-09-08T12:42:19;100954.84;;;25.38;39.42
43621;BME280;29213;50.770;7.298;2023-09-08T12:44:45;100919.56;;;25.26;38.94
43621;BME280;29213;50.770;7.298;2023-09-08T12:47:11;100932.22;;;25.38;39.87
43621;BME280;29213;50.770;7.298;2023-09-08T12:49:39;100939.25;;;25.56;39.38
43621;BME280;29213;50.770;7.298;2023-09-08T12:52:04;100943.94;;;25.60;39.93
43621;BME280;29213;50.770;7.298;2023-09-08T12:54:30;100916.31;;;25.52;39.88